昆明 の空港の天気 - METARとTAF

昆明巫家餽国際空港 ( ZPPP / KMG ) - 中国 雲南省昆明市
飛行場実況気象(Metar)
観測時間11/27 16:00 CST (11/27 08:00 UTC)
風向・風速南西 9m/s
視程10km以上
天気現象
なし
気温21℃
湿度28%
気圧1014hPa
METARZPPP 270800Z 23009MPS CAVOK 21/02 Q1014 NOSIG
過去の天気等 Google飛行場航空写真 Wunderground天気予報

過去48時間のMETAR

飛行場予報(TAF)
発表時間: 11/27 11:14 CST (11/27 03:14 UTC)
予報対象時間: 27日14時 CST ~ 28日14時 CST
風向・風速南西 10m/s 瞬間風速 17m/s
視程10km以上
少しの雲 雲底高度 790m
27日21時 CST ~ 27日22時 CST に徐々に
風向・風速南西 5m/s
28日9時 CST ~ 28日10時 CST に徐々に
風向・風速南西 10m/s 瞬間風速 17m/s
TAF ZPPP 270314Z 2706/2806 23010G17MPS 9999 FEW026 TX22/2708Z TN08/2723Z
BECMG 2713/2714 23005MPS
BECMG 2801/2802 23010G17MPS